Hutchinson Municipal Airport
KHUT : now visible

Airfield :











YOU CAN JOIN US ON...

 
LOGIN :

Register | Disclaimer

   EN    FR    IT 

 









Legend :    VFR   Marginal VFR   IFR   Intensive IFR   Very Intensive IFR
Visi :
Ceiling :
>= 8 km
>= 3000ft
5 to 8 km
1000 to 3000 ft
1500m to 5 km
500 to 1000 ft
800 to 1500m
200 to 500 ft
< 800m
< 200 ft
Symbols :   Thunderstorms  Fog  Heavy snow  Heavy precipitations  Wind > 20 kt






- Airport Elevation : 1543 ft


KHUT - Hutchinson Municipal

CURRENT METAR :
  • 200652Z AUTO 17016G27KT 10SM CLR 24/18 A2924 RMK AO2 PK WND 18027/0630 SLP876 T02440183

EXPIRED METARs :
  • 200552Z AUTO 16015G25KT 10SM CLR 24/19 A2927 RMK AO2 PK WND 17028/0536 SLP886 T02440194 10300 20244 403220183 58021
  • 200452Z AUTO 16015G23KT 10SM CLR 25/20 A2930 RMK AO2 PK WND 16027/0405 SLP897 T02500200

TAF KHUT
Valid from the 20 at 06:00 until the 21 at 06:00 UTC


200520Z 2006/2106 17016G26KT P6SM BKN120 WS020/20055KT
FM200800 28016G25KT P6SM BKN060
FM201000 34022G32KT P6SM BKN050
FM201400 01017G25KT P6SM BKN050
FM202100 03014G22KT P6SM BKN070
KZKC FIR / North America



MET'MAP, your aeronautical weather chart ! - Copyright ORBIFLY December 2007 - Disclaimer

ORBIFLY MET'MAP TEAM :

Programming & Development : Alexandra Zaïnal
Original concept : Baudouin d'Aumeries
Technical & hardware support : Manuel Goepfert
Assistance : Marc-Olivier Méhu

Contact : metmap@orbifly.com




SOURCES & CREDITS :

   NOAA       Earth
Advisory